Shakopee, MN

2:52 PM CST on March 03, 2015 (GMT -0600)
KMNSHAKO1 | Change Station
CLOSE
Current Station
Personal Weather Station
Location: Shakopee, MN
Elevation: 807 ft
Nearby Weather Stations

Elev 807 ft 44.78 °N, 93.53 °W | Updated 10 seconds ago

Overcast
Overcast
30.7 °F
Feels Like 24 °F
N
6.7
Wind Variable Wind from WSW
Gusts 6.7 mph

Today
High -- | Low -- °F
--% Chance of Precip.
Yesterday
High -- | Low -- °F
Precip. -- in
6:48 AM 6:04 PM
Waxing Gibbous, 97% visible
Pressure 29.71 in
Visibility 8.0 miles
Clouds Few 2700 ft
Windchill 24 °F
Dew Point 16 °F
Humidity 55%
Rainfall 0.02 in
Snow Depth Not available.
UV 3 out of 12
Pollen .50 out of 12
Air Quality Not available.
Flu Activity Not available.
SPECI KFCM 032043Z 30015G29KT 8SM FEW027 M03/M11 A2971 RMK AO2 PK WND 29029/2040 T10281106

More Conditions Fewer Conditions

Pressure 29.71 in
Visibility 8.0 miles
Clouds Few 2700 ft
Windchill 24 °F
Dew Point 16 °F
Humidity 55%
Rainfall 0.02 in
Snow Depth Not available.
UV 3 out of 12
Pollen .50 out of 12
Air Quality Not available.
Flu Activity Not available.
SPECI KFCM 032043Z 30015G29KT 8SM FEW027 M03/M11 A2971 RMK AO2 PK WND 29029/2040 T10281106

More Conditions Fewer Conditions

10-Day Weather Forecast

Almanac

Astronomy

Mar. 03, 2015 Rise Set
Actual Time
Civil Twilight
Nautical Twilight
Astronomical Twilight
Moon
Length of Visible Light
Length of Day
Tomorrow will be .
, % of the Moon is Illuminated

Today's Extremes

State Highs State Lows

Community

WunderPhotos

Upload Photos

1,802,246 photos uploaded!

WunderBlogs® & News

Nearby

Air Quality

  Air Quality AQ Index Pollutant
Not available.

Snow Depth

Station Depth Elevation

Earthquake Activity

City Distance Mag. Time & Date
Minimum magnitude displayed is 2.5.

Coastal Water Temperatures

Place Temperature

Nearby Weather Stations